PWSweather.com
Personal Weather Stations
Station Observations
IROGLAN40
AalgaardNO 4330

AalgaardNO 4330

Lat: 58.773, Lon: 5.846

Elevation: 326

Station Type: Davis Vanatge Pro2

www.mavahome.com

High Low Average
Temperature 54.3°F12.4°C 49.3°F9.6°C 52.0°F11.1°C
Dew Point 50.3°F10.2°C 44.2°F6.8°C 46.8°F8.2°C
Winds 12.7 mph 20.4 kmh Calm Calm 5.0 mph S8.0 kmh S
Wind Gusts 19.6 mph31.5 kmh -- 8.0 mph12.9 kmh
Humidity 89% 72% 83%
Pressure 30.02 in1016.6 mb 29.72 in1006.4 mb -
Precipitation 0.14 in3.6 mm - -
Hour Temp Dew Point Humidity Winds Wind Gusts Pressure Precip Precip Rate Daily Precip Total
12:00 AM 52.9°F11.6°C 49.7°F9.8°C 89% 1.2 mph S1.9 kmh S 3.5 mph5.6 kmh 29.74 in1007.1 mb - 0.00 in0.0 mm 0.00 in0.0 mm
12:10 AM 53.0°F11.7°C 49.8°F9.9°C 89% 1.2 mph SSW1.9 kmh SSW 1.2 mph1.9 kmh 29.73 in1006.8 mb - 0.00 in0.0 mm 0.00 in0.0 mm
12:20 AM 53.1°F11.7°C 49.9°F9.9°C 89% 2.3 mph WSW3.7 kmh WSW 3.5 mph5.6 kmh 29.73 in1006.8 mb - 0.00 in0.0 mm 0.00 in0.0 mm
12:30 AM 53.1°F11.7°C 49.9°F9.9°C 89% 2.3 mph WSW3.7 kmh WSW 5.8 mph9.3 kmh 29.73 in1006.8 mb - 0.00 in0.0 mm 0.00 in0.0 mm
12:40 AM 53.2°F11.8°C 50.0°F10.0°C 89% 2.3 mph WSW3.7 kmh WSW 3.5 mph5.6 kmh 29.73 in1006.8 mb - 0.00 in0.0 mm 0.00 in0.0 mm
12:50 AM 53.1°F11.7°C 50.0°F10.0°C 89% 3.5 mph W5.6 kmh W 3.5 mph5.6 kmh 29.73 in1006.8 mb - 0.00 in0.0 mm 0.00 in0.0 mm
01:00 AM 53.2°F11.8°C 50.0°F10.0°C 89% 1.2 mph S1.9 kmh S -- 29.73 in1006.8 mb - 0.00 in0.0 mm 0.00 in0.0 mm
01:10 AM 53.3°F11.8°C 50.1°F10.1°C 89% 1.2 mph SE1.9 kmh SE 2.3 mph3.7 kmh 29.73 in1006.8 mb - 0.00 in0.0 mm 0.00 in0.0 mm
01:20 AM 53.4°F11.9°C 50.2°F10.1°C 89% 4.6 mph SSW7.4 kmh SSW 8.1 mph13.0 kmh 29.72 in1006.4 mb - 0.00 in0.0 mm 0.00 in0.0 mm
01:30 AM 53.5°F11.9°C 50.3°F10.2°C 89% 2.3 mph SSE3.7 kmh SSE 3.5 mph5.6 kmh 29.73 in1006.8 mb - 0.00 in0.0 mm 0.00 in0.0 mm
01:40 AM 53.4°F11.9°C 50.2°F10.1°C 89% 5.8 mph S9.3 kmh S 8.1 mph13.0 kmh 29.73 in1006.8 mb - 0.00 in0.0 mm 0.00 in0.0 mm
01:50 AM 53.4°F11.9°C 50.2°F10.1°C 89% 4.6 mph S7.4 kmh S 9.2 mph14.8 kmh 29.73 in1006.8 mb - 0.00 in0.0 mm 0.00 in0.0 mm
02:00 AM 53.4°F11.9°C 50.2°F10.1°C 89% 3.5 mph S5.6 kmh S 6.9 mph11.1 kmh 29.73 in1006.8 mb - 0.00 in0.0 mm 0.00 in0.0 mm
02:20 AM 52.6°F11.4°C 48.5°F9.2°C 86% 5.8 mph S9.3 kmh S 9.2 mph14.8 kmh 29.73 in1006.8 mb - 0.00 in0.0 mm 0.01 in0.3 mm
02:30 AM 52.4°F11.3°C 47.1°F8.4°C 82% 3.5 mph S5.6 kmh S 5.8 mph9.3 kmh 29.73 in1006.8 mb - 0.00 in0.0 mm 0.01 in0.3 mm
02:40 AM 52.3°F11.3°C 46.6°F8.1°C 81% 4.6 mph S7.4 kmh S 9.2 mph14.8 kmh 29.73 in1006.8 mb - 0.00 in0.0 mm 0.01 in0.3 mm
02:50 AM 52.0°F11.1°C 46.7°F8.2°C 82% 1.2 mph S1.9 kmh S 2.3 mph3.7 kmh 29.73 in1006.8 mb - 0.00 in0.0 mm 0.01 in0.3 mm
03:00 AM 51.9°F11.1°C 46.9°F8.3°C 83% 2.3 mph SSE3.7 kmh SSE 3.5 mph5.6 kmh 29.74 in1007.1 mb - 0.00 in0.0 mm 0.01 in0.3 mm
03:10 AM 51.8°F11.0°C 46.8°F8.2°C 83% 2.3 mph SSE3.7 kmh SSE 3.5 mph5.6 kmh 29.74 in1007.1 mb - 0.00 in0.0 mm 0.01 in0.3 mm
03:20 AM 51.8°F11.0°C 47.1°F8.4°C 84% 1.2 mph SSW1.9 kmh SSW 2.3 mph3.7 kmh 29.74 in1007.1 mb - 0.00 in0.0 mm 0.01 in0.3 mm
03:30 AM 51.9°F11.1°C 47.2°F8.4°C 84% 2.3 mph SSE3.7 kmh SSE 3.5 mph5.6 kmh 29.74 in1007.1 mb - 0.00 in0.0 mm 0.01 in0.3 mm
03:40 AM 51.9°F11.1°C 47.2°F8.4°C 84% 1.2 mph SSE1.9 kmh SSE 3.5 mph5.6 kmh 29.74 in1007.1 mb - 0.00 in0.0 mm 0.01 in0.3 mm
03:50 AM 52.0°F11.1°C 47.0°F8.3°C 83% 3.5 mph SSW5.6 kmh SSW 4.6 mph7.4 kmh 29.74 in1007.1 mb - 0.00 in0.0 mm 0.01 in0.3 mm
04:00 AM 52.1°F11.2°C 47.1°F8.4°C 83% 3.5 mph S5.6 kmh S 4.6 mph7.4 kmh 29.74 in1007.1 mb - 0.00 in0.0 mm 0.01 in0.3 mm
04:10 AM 52.1°F11.2°C 47.1°F8.4°C 83% 3.5 mph S5.6 kmh S 4.6 mph7.4 kmh 29.74 in1007.1 mb - 0.00 in0.0 mm 0.01 in0.3 mm
04:20 AM 52.2°F11.2°C 46.5°F8.1°C 81% 2.3 mph SE3.7 kmh SE 4.6 mph7.4 kmh 29.74 in1007.1 mb - 0.00 in0.0 mm 0.01 in0.3 mm
04:30 AM 52.3°F11.3°C 46.3°F7.9°C 80% 6.9 mph S11.1 kmh S 10.4 mph16.7 kmh 29.75 in1007.5 mb - 0.00 in0.0 mm 0.01 in0.3 mm
04:40 AM 52.0°F11.1°C 45.7°F7.6°C 79% 5.8 mph S9.3 kmh S 9.2 mph14.8 kmh 29.75 in1007.5 mb - 0.00 in0.0 mm 0.01 in0.3 mm
04:50 AM 51.6°F10.9°C 44.6°F7.0°C 77% 3.5 mph S5.6 kmh S 5.8 mph9.3 kmh 29.76 in1007.8 mb - 0.00 in0.0 mm 0.01 in0.3 mm
05:00 AM 51.9°F11.1°C 44.2°F6.8°C 75% 4.6 mph S7.4 kmh S 11.5 mph18.5 kmh 29.76 in1007.8 mb - 0.00 in0.0 mm 0.01 in0.3 mm
05:10 AM 51.7°F10.9°C 44.4°F6.9°C 76% 6.9 mph S11.1 kmh S 9.2 mph14.8 kmh 29.77 in1008.1 mb - 0.00 in0.0 mm 0.01 in0.3 mm
05:20 AM 52.3°F11.3°C 44.9°F7.2°C 76% 5.8 mph S9.3 kmh S 10.4 mph16.7 kmh 29.77 in1008.1 mb - 0.00 in0.0 mm 0.01 in0.3 mm
05:30 AM 52.6°F11.4°C 45.3°F7.4°C 76% 2.3 mph S3.7 kmh S 4.6 mph7.4 kmh 29.78 in1008.5 mb - 0.00 in0.0 mm 0.01 in0.3 mm
05:40 AM 52.3°F11.3°C 44.6°F7.0°C 75% 4.6 mph S7.4 kmh S 5.8 mph9.3 kmh 29.78 in1008.5 mb - 0.00 in0.0 mm 0.01 in0.3 mm
05:50 AM 52.5°F11.4°C 45.1°F7.3°C 76% 3.5 mph S5.6 kmh S 6.9 mph11.1 kmh 29.78 in1008.5 mb - 0.00 in0.0 mm 0.01 in0.3 mm
06:00 AM 52.1°F11.2°C 45.2°F7.3°C 77% 4.6 mph S7.4 kmh S 10.4 mph16.7 kmh 29.79 in1008.8 mb - 0.00 in0.0 mm 0.01 in0.3 mm
06:10 AM 52.6°F11.4°C 45.2°F7.3°C 76% 2.3 mph S3.7 kmh S 5.8 mph9.3 kmh 29.80 in1009.1 mb - 0.00 in0.0 mm 0.01 in0.3 mm
06:20 AM 52.0°F11.1°C 45.7°F7.6°C 79% 3.5 mph S5.6 kmh S 6.9 mph11.1 kmh 29.80 in1009.1 mb - 0.00 in0.0 mm 0.01 in0.3 mm
06:30 AM 52.1°F11.2°C 44.8°F7.1°C 76% 4.6 mph SSE7.4 kmh SSE 6.9 mph11.1 kmh 29.80 in1009.1 mb - 0.00 in0.0 mm 0.01 in0.3 mm
06:40 AM 51.8°F11.0°C 45.8°F7.7°C 80% 4.6 mph S7.4 kmh S 9.2 mph14.8 kmh 29.81 in1009.5 mb - 0.00 in0.0 mm 0.01 in0.3 mm
06:50 AM 51.3°F10.7°C 46.0°F7.8°C 82% 6.9 mph S11.1 kmh S 15.0 mph24.1 kmh 29.82 in1009.8 mb - 0.00 in0.0 mm 0.01 in0.3 mm
07:00 AM 52.5°F11.4°C 46.2°F7.9°C 79% 5.8 mph S9.3 kmh S 8.1 mph13.0 kmh 29.82 in1009.8 mb - 0.00 in0.0 mm 0.01 in0.3 mm
07:10 AM 52.8°F11.6°C 45.8°F7.7°C 77% 5.8 mph S9.3 kmh S 10.4 mph16.7 kmh 29.82 in1009.8 mb - 0.00 in0.0 mm 0.01 in0.3 mm
07:20 AM 52.9°F11.6°C 45.6°F7.6°C 76% 3.5 mph S5.6 kmh S 4.6 mph7.4 kmh 29.82 in1009.8 mb - 0.00 in0.0 mm 0.01 in0.3 mm
07:30 AM 53.0°F11.7°C 44.9°F7.2°C 74% 4.6 mph SSE7.4 kmh SSE 12.7 mph20.4 kmh 29.83 in1010.2 mb - 0.00 in0.0 mm 0.01 in0.3 mm
07:40 AM 53.4°F11.9°C 46.0°F7.8°C 76% 4.6 mph S7.4 kmh S 9.2 mph14.8 kmh 29.83 in1010.2 mb - 0.00 in0.0 mm 0.01 in0.3 mm
07:50 AM 54.3°F12.4°C 45.4°F7.4°C 72% 10.4 mph S16.7 kmh S 18.4 mph29.6 kmh 29.83 in1010.2 mb - 0.00 in0.0 mm 0.01 in0.3 mm
08:00 AM 49.7°F9.8°C 44.4°F6.9°C 82% 5.8 mph S9.3 kmh S 6.9 mph11.1 kmh 29.84 in1010.5 mb - 0.03 in0.8 mm 0.04 in1.0 mm
08:10 AM 49.8°F9.9°C 46.0°F7.8°C 87% 4.6 mph SE7.4 kmh SE 6.9 mph11.1 kmh 29.84 in1010.5 mb - 0.00 in0.0 mm 0.04 in1.0 mm
08:20 AM 50.3°F10.2°C 46.3°F7.9°C 86% 5.8 mph S9.3 kmh S 11.5 mph18.5 kmh 29.85 in1010.8 mb - 0.00 in0.0 mm 0.04 in1.0 mm
08:30 AM 50.8°F10.4°C 45.8°F7.7°C 83% 6.9 mph S11.1 kmh S 10.4 mph16.7 kmh 29.86 in1011.2 mb - 0.00 in0.0 mm 0.04 in1.0 mm
08:40 AM 51.0°F10.6°C 46.1°F7.8°C 83% 4.6 mph SSE7.4 kmh SSE 10.4 mph16.7 kmh 29.86 in1011.2 mb - 0.00 in0.0 mm 0.04 in1.0 mm
08:50 AM 51.8°F11.0°C 46.5°F8.1°C 82% 6.9 mph S11.1 kmh S 11.5 mph18.5 kmh 29.86 in1011.2 mb - 0.00 in0.0 mm 0.04 in1.0 mm
09:00 AM 51.9°F11.1°C 45.9°F7.7°C 80% 5.8 mph S9.3 kmh S 10.4 mph16.7 kmh 29.86 in1011.2 mb - 0.00 in0.0 mm 0.04 in1.0 mm
09:10 AM 51.4°F10.8°C 46.4°F8.0°C 83% 5.8 mph S9.3 kmh S 10.4 mph16.7 kmh 29.87 in1011.5 mb - 0.01 in0.3 mm 0.05 in1.3 mm
09:20 AM 51.2°F10.7°C 46.8°F8.2°C 85% 2.3 mph SSW3.7 kmh SSW 6.9 mph11.1 kmh 29.87 in1011.5 mb - 0.00 in0.0 mm 0.05 in1.3 mm
09:30 AM 51.6°F10.9°C 47.0°F8.3°C 84% 3.5 mph SSW5.6 kmh SSW 6.9 mph11.1 kmh 29.88 in1011.9 mb - 0.00 in0.0 mm 0.05 in1.3 mm
09:40 AM 50.5°F10.3°C 45.8°F7.7°C 84% 10.4 mph S16.7 kmh S 13.8 mph22.2 kmh 29.89 in1012.2 mb - 0.03 in0.8 mm 0.08 in2.0 mm
09:50 AM 49.4°F9.7°C 46.0°F7.8°C 88% 2.3 mph SW3.7 kmh SW 4.6 mph7.4 kmh 29.89 in1012.2 mb - 0.00 in0.0 mm 0.08 in2.0 mm
10:00 AM 50.6°F10.3°C 47.5°F8.6°C 89% 4.6 mph SSW7.4 kmh SSW 9.2 mph14.8 kmh 29.89 in1012.2 mb - 0.00 in0.0 mm 0.08 in2.0 mm
10:10 AM 51.1°F10.6°C 47.4°F8.6°C 87% 4.6 mph S7.4 kmh S 10.4 mph16.7 kmh 29.89 in1012.2 mb - 0.00 in0.0 mm 0.08 in2.0 mm
10:20 AM 51.3°F10.7°C 46.9°F8.3°C 85% 5.8 mph S9.3 kmh S 8.1 mph13.0 kmh 29.90 in1012.5 mb - 0.02 in0.5 mm 0.09 in2.3 mm
10:30 AM 50.6°F10.3°C 47.2°F8.4°C 88% 5.8 mph S9.3 kmh S 5.8 mph9.3 kmh 29.90 in1012.5 mb - 0.01 in0.3 mm 0.09 in2.3 mm
10:40 AM 51.1°F10.6°C 47.7°F8.7°C 88% 1.2 mph SSE1.9 kmh SSE 4.6 mph7.4 kmh 29.90 in1012.5 mb - 0.00 in0.0 mm 0.09 in2.3 mm
10:50 AM 51.0°F10.6°C 47.3°F8.5°C 87% 4.6 mph S7.4 kmh S 11.5 mph18.5 kmh 29.91 in1012.9 mb - 0.01 in0.3 mm 0.10 in2.5 mm
11:00 AM 51.8°F11.0°C 48.0°F8.9°C 87% 6.9 mph S11.1 kmh S 11.5 mph18.5 kmh 29.91 in1012.9 mb - 0.00 in0.0 mm 0.10 in2.5 mm
11:10 AM 52.5°F11.4°C 47.8°F8.8°C 84% 6.9 mph S11.1 kmh S 11.5 mph18.5 kmh 29.91 in1012.9 mb - 0.00 in0.0 mm 0.10 in2.5 mm
11:20 AM 52.4°F11.3°C 47.7°F8.7°C 84% 3.5 mph S5.6 kmh S 4.6 mph7.4 kmh 29.92 in1013.2 mb - 0.00 in0.0 mm 0.10 in2.5 mm
11:30 AM 52.3°F11.3°C 47.0°F8.3°C 82% 6.9 mph S11.1 kmh S 11.5 mph18.5 kmh 29.92 in1013.2 mb - 0.00 in0.0 mm 0.10 in2.5 mm
11:40 AM 52.5°F11.4°C 47.1°F8.4°C 82% 9.2 mph SSE14.8 kmh SSE 12.7 mph20.4 kmh 29.92 in1013.2 mb - 0.00 in0.0 mm 0.10 in2.5 mm
11:50 AM 51.7°F10.9°C 47.0°F8.3°C 84% 11.5 mph SSE18.5 kmh SSE 16.1 mph25.9 kmh 29.93 in1013.5 mb - 0.01 in0.3 mm 0.11 in2.8 mm
12:00 PM 51.2°F10.7°C 47.4°F8.6°C 87% 8.1 mph S13.0 kmh S 15.0 mph24.1 kmh 29.93 in1013.5 mb - 0.00 in0.0 mm 0.11 in2.8 mm
12:10 PM 51.8°F11.0°C 47.1°F8.4°C 84% 11.5 mph S18.5 kmh S 12.7 mph20.4 kmh 29.93 in1013.5 mb - 0.00 in0.0 mm 0.11 in2.8 mm
12:20 PM 51.9°F11.1°C 47.2°F8.4°C 84% 8.1 mph SSE13.0 kmh SSE 19.6 mph31.5 kmh 29.93 in1013.5 mb - 0.00 in0.0 mm 0.11 in2.8 mm
12:30 PM 52.3°F11.3°C 47.9°F8.8°C 85% 4.6 mph SSE7.4 kmh SSE 10.4 mph16.7 kmh 29.93 in1013.5 mb - 0.00 in0.0 mm 0.11 in2.8 mm
12:40 PM 52.5°F11.4°C 47.5°F8.6°C 83% 5.8 mph S9.3 kmh S 9.2 mph14.8 kmh 29.94 in1013.9 mb - 0.00 in0.0 mm 0.11 in2.8 mm
12:50 PM 52.7°F11.5°C 47.4°F8.6°C 82% 8.1 mph S13.0 kmh S 11.5 mph18.5 kmh 29.93 in1013.5 mb - 0.00 in0.0 mm 0.11 in2.8 mm
01:00 PM 52.8°F11.6°C 46.8°F8.2°C 80% 11.5 mph SSE18.5 kmh SSE 13.8 mph22.2 kmh 29.94 in1013.9 mb - 0.00 in0.0 mm 0.11 in2.8 mm
01:10 PM 53.0°F11.7°C 47.6°F8.7°C 82% 4.6 mph S7.4 kmh S 9.2 mph14.8 kmh 29.94 in1013.9 mb - 0.00 in0.0 mm 0.11 in2.8 mm
01:20 PM 52.8°F11.6°C 47.1°F8.4°C 81% 8.1 mph S13.0 kmh S 13.8 mph22.2 kmh 29.95 in1014.2 mb - 0.00 in0.0 mm 0.11 in2.8 mm
01:30 PM 52.5°F11.4°C 47.2°F8.4°C 82% 6.9 mph S11.1 kmh S 6.9 mph11.1 kmh 29.94 in1013.9 mb - 0.00 in0.0 mm 0.11 in2.8 mm
01:40 PM 52.6°F11.4°C 47.2°F8.4°C 82% 6.9 mph S11.1 kmh S 11.5 mph18.5 kmh 29.94 in1013.9 mb - 0.00 in0.0 mm 0.11 in2.8 mm
01:50 PM 52.3°F11.3°C 47.3°F8.5°C 83% 10.4 mph SSE16.7 kmh SSE 15.0 mph24.1 kmh 29.95 in1014.2 mb - 0.00 in0.0 mm 0.11 in2.8 mm
02:00 PM 52.4°F11.3°C 47.0°F8.3°C 82% 5.8 mph S9.3 kmh S 11.5 mph18.5 kmh 29.95 in1014.2 mb - 0.00 in0.0 mm 0.11 in2.8 mm
02:10 PM 52.7°F11.5°C 47.3°F8.5°C 82% 6.9 mph SSE11.1 kmh SSE 12.7 mph20.4 kmh 29.96 in1014.6 mb - 0.00 in0.0 mm 0.11 in2.8 mm
02:20 PM 53.2°F11.8°C 47.1°F8.4°C 80% 10.4 mph SSW16.7 kmh SSW 16.1 mph25.9 kmh 29.96 in1014.6 mb - 0.00 in0.0 mm 0.11 in2.8 mm
02:30 PM 53.2°F11.8°C 47.2°F8.4°C 80% 9.2 mph S14.8 kmh S 11.5 mph18.5 kmh 29.96 in1014.6 mb - 0.00 in0.0 mm 0.11 in2.8 mm
02:40 PM 53.6°F12.0°C 47.6°F8.7°C 80% 11.5 mph S18.5 kmh S 17.3 mph27.8 kmh 29.96 in1014.6 mb - 0.00 in0.0 mm 0.11 in2.8 mm
02:50 PM 53.3°F11.8°C 46.6°F8.1°C 78% 10.4 mph S16.7 kmh S 19.6 mph31.5 kmh 29.96 in1014.6 mb - 0.00 in0.0 mm 0.11 in2.8 mm
03:00 PM 53.4°F11.9°C 47.1°F8.4°C 79% 5.8 mph S9.3 kmh S 8.1 mph13.0 kmh 29.96 in1014.6 mb - 0.00 in0.0 mm 0.11 in2.8 mm
03:10 PM 53.5°F11.9°C 47.2°F8.4°C 79% 6.9 mph S11.1 kmh S 10.4 mph16.7 kmh 29.97 in1014.9 mb - 0.00 in0.0 mm 0.11 in2.8 mm
03:20 PM 53.7°F12.1°C 47.3°F8.5°C 79% 5.8 mph SSW9.3 kmh SSW 12.7 mph20.4 kmh 29.97 in1014.9 mb - 0.00 in0.0 mm 0.11 in2.8 mm
03:30 PM 54.2°F12.3°C 47.1°F8.4°C 77% 8.1 mph S13.0 kmh S 10.4 mph16.7 kmh 29.97 in1014.9 mb - 0.00 in0.0 mm 0.11 in2.8 mm
03:40 PM 52.6°F11.4°C 47.6°F8.7°C 83% 8.1 mph SSW13.0 kmh SSW 10.4 mph16.7 kmh 29.97 in1014.9 mb - 0.01 in0.3 mm 0.12 in3.0 mm
03:50 PM 52.1°F11.2°C 47.8°F8.8°C 85% 4.6 mph SSW7.4 kmh SSW 5.8 mph9.3 kmh 29.97 in1014.9 mb - 0.00 in0.0 mm 0.12 in3.0 mm
04:00 PM 52.6°F11.4°C 47.6°F8.7°C 83% 11.5 mph S18.5 kmh S 17.3 mph27.8 kmh 29.98 in1015.2 mb - 0.00 in0.0 mm 0.12 in3.0 mm
04:10 PM 51.9°F11.1°C 46.9°F8.3°C 83% 8.1 mph SSE13.0 kmh SSE 11.5 mph18.5 kmh 29.98 in1015.2 mb - 0.00 in0.0 mm 0.12 in3.0 mm
04:20 PM 51.4°F10.8°C 47.7°F8.7°C 87% 3.5 mph SSE5.6 kmh SSE 5.8 mph9.3 kmh 29.98 in1015.2 mb - 0.01 in0.3 mm 0.13 in3.3 mm
04:30 PM 52.4°F11.3°C 47.7°F8.7°C 84% 11.5 mph S18.5 kmh S 19.6 mph31.5 kmh 29.98 in1015.2 mb - 0.00 in0.0 mm 0.13 in3.3 mm
04:40 PM 53.4°F11.9°C 48.0°F8.9°C 82% 9.2 mph S14.8 kmh S 15.0 mph24.1 kmh 29.98 in1015.2 mb - 0.00 in0.0 mm 0.13 in3.3 mm
04:50 PM 53.1°F11.7°C 47.1°F8.4°C 80% 11.5 mph S18.5 kmh S 17.3 mph27.8 kmh 29.98 in1015.2 mb - 0.00 in0.0 mm 0.13 in3.3 mm
05:00 PM 53.1°F11.7°C 46.8°F8.2°C 79% 9.2 mph S14.8 kmh S 15.0 mph24.1 kmh 29.98 in1015.2 mb - 0.00 in0.0 mm 0.13 in3.3 mm
05:10 PM 52.8°F11.6°C 46.8°F8.2°C 80% 6.9 mph S11.1 kmh S 11.5 mph18.5 kmh 29.99 in1015.6 mb - 0.00 in0.0 mm 0.13 in3.3 mm
05:20 PM 52.6°F11.4°C 46.3°F7.9°C 79% 9.2 mph S14.8 kmh S 15.0 mph24.1 kmh 30.00 in1015.9 mb - 0.00 in0.0 mm 0.13 in3.3 mm
05:30 PM 52.8°F11.6°C 46.5°F8.1°C 79% 4.6 mph SSE7.4 kmh SSE 8.1 mph13.0 kmh 29.99 in1015.6 mb - 0.00 in0.0 mm 0.13 in3.3 mm
05:40 PM 53.4°F11.9°C 46.3°F7.9°C 77% 8.1 mph S13.0 kmh S 13.8 mph22.2 kmh 29.99 in1015.6 mb - 0.00 in0.0 mm 0.13 in3.3 mm
05:50 PM 53.9°F12.2°C 46.5°F8.1°C 76% 6.9 mph S11.1 kmh S 11.5 mph18.5 kmh 29.99 in1015.6 mb - 0.00 in0.0 mm 0.13 in3.3 mm
06:00 PM 53.0°F11.7°C 46.0°F7.8°C 77% 12.7 mph SSE20.4 kmh SSE 13.8 mph22.2 kmh 29.99 in1015.6 mb - 0.00 in0.0 mm 0.13 in3.3 mm
06:10 PM 52.8°F11.6°C 46.5°F8.1°C 79% 3.5 mph S5.6 kmh S 4.6 mph7.4 kmh 30.00 in1015.9 mb - 0.00 in0.0 mm 0.13 in3.3 mm
06:20 PM 53.1°F11.7°C 46.7°F8.2°C 79% 4.6 mph S7.4 kmh S 6.9 mph11.1 kmh 30.00 in1015.9 mb - 0.00 in0.0 mm 0.13 in3.3 mm
06:30 PM 53.3°F11.8°C 46.6°F8.1°C 78% 3.5 mph SSE5.6 kmh SSE 6.9 mph11.1 kmh 30.00 in1015.9 mb - 0.00 in0.0 mm 0.13 in3.3 mm
06:40 PM 53.0°F11.7°C 46.6°F8.1°C 79% 5.8 mph S9.3 kmh S 9.2 mph14.8 kmh 30.00 in1015.9 mb - 0.00 in0.0 mm 0.13 in3.3 mm
06:50 PM 52.7°F11.5°C 46.7°F8.2°C 80% 4.6 mph S7.4 kmh S 5.8 mph9.3 kmh 30.00 in1015.9 mb - 0.00 in0.0 mm 0.13 in3.3 mm
07:00 PM 52.6°F11.4°C 46.6°F8.1°C 80% 2.3 mph S3.7 kmh S 10.4 mph16.7 kmh 30.00 in1015.9 mb - 0.00 in0.0 mm 0.13 in3.3 mm
07:10 PM 52.2°F11.2°C 46.8°F8.2°C 82% 4.6 mph S7.4 kmh S 6.9 mph11.1 kmh 30.00 in1015.9 mb - 0.00 in0.0 mm 0.13 in3.3 mm
07:20 PM 51.8°F11.0°C 46.8°F8.2°C 83% 3.5 mph S5.6 kmh S 9.2 mph14.8 kmh 30.00 in1015.9 mb - 0.00 in0.0 mm 0.13 in3.3 mm
07:30 PM 51.0°F10.6°C 46.3°F7.9°C 84% 3.5 mph S5.6 kmh S 5.8 mph9.3 kmh 30.01 in1016.3 mb - 0.01 in0.3 mm 0.13 in3.3 mm
07:40 PM 49.3°F9.6°C 45.6°F7.6°C 87% 2.3 mph S3.7 kmh S 3.5 mph5.6 kmh 30.01 in1016.3 mb - 0.00 in0.0 mm 0.13 in3.3 mm
07:50 PM 50.1°F10.1°C 46.4°F8.0°C 87% 2.3 mph S3.7 kmh S 3.5 mph5.6 kmh 30.01 in1016.3 mb - 0.00 in0.0 mm 0.13 in3.3 mm
08:00 PM 50.5°F10.3°C 46.8°F8.2°C 87% 3.5 mph S5.6 kmh S 9.2 mph14.8 kmh 30.01 in1016.3 mb - 0.00 in0.0 mm 0.13 in3.3 mm
08:10 PM 50.8°F10.4°C 46.5°F8.1°C 85% 3.5 mph SSE5.6 kmh SSE 3.5 mph5.6 kmh 30.01 in1016.3 mb - 0.00 in0.0 mm 0.13 in3.3 mm
08:20 PM 51.0°F10.6°C 46.3°F7.9°C 84% 3.5 mph S5.6 kmh S 4.6 mph7.4 kmh 30.01 in1016.3 mb - 0.00 in0.0 mm 0.13 in3.3 mm
08:30 PM 51.1°F10.6°C 46.1°F7.8°C 83% 2.3 mph SSE3.7 kmh SSE 4.6 mph7.4 kmh 30.01 in1016.3 mb - 0.00 in0.0 mm 0.13 in3.3 mm
08:40 PM 51.2°F10.7°C 46.9°F8.3°C 85% 4.6 mph S7.4 kmh S 9.2 mph14.8 kmh 30.01 in1016.3 mb - 0.01 in0.3 mm 0.14 in3.6 mm
08:50 PM 51.5°F10.8°C 47.2°F8.4°C 85% 2.3 mph S3.7 kmh S 5.8 mph9.3 kmh 30.01 in1016.3 mb - 0.00 in0.0 mm 0.14 in3.6 mm
09:00 PM 51.7°F10.9°C 47.0°F8.3°C 84% 2.3 mph S3.7 kmh S 3.5 mph5.6 kmh 30.01 in1016.3 mb - 0.00 in0.0 mm 0.14 in3.6 mm
09:10 PM 51.3°F10.7°C 46.3°F7.9°C 83% 4.6 mph S7.4 kmh S 6.9 mph11.1 kmh 30.02 in1016.6 mb - 0.00 in0.0 mm 0.14 in3.6 mm
09:20 PM 51.2°F10.7°C 45.9°F7.7°C 82% 3.5 mph S5.6 kmh S 4.6 mph7.4 kmh 30.01 in1016.3 mb - 0.00 in0.0 mm 0.14 in3.6 mm
09:30 PM 51.0°F10.6°C 45.3°F7.4°C 81% 2.3 mph S3.7 kmh S 3.5 mph5.6 kmh 30.01 in1016.3 mb - 0.00 in0.0 mm 0.14 in3.6 mm
09:40 PM 50.8°F10.4°C 45.1°F7.3°C 81% 2.3 mph S3.7 kmh S 2.3 mph3.7 kmh 30.01 in1016.3 mb - 0.00 in0.0 mm 0.14 in3.6 mm
09:50 PM 50.4°F10.2°C 44.8°F7.1°C 81% 2.3 mph S3.7 kmh S 3.5 mph5.6 kmh 30.01 in1016.3 mb - 0.00 in0.0 mm 0.14 in3.6 mm
10:00 PM 50.1°F10.1°C 44.8°F7.1°C 82% 2.3 mph SE3.7 kmh SE 3.5 mph5.6 kmh 30.01 in1016.3 mb - 0.00 in0.0 mm 0.14 in3.6 mm
10:10 PM 50.2°F10.1°C 44.9°F7.2°C 82% 1.2 mph SSE1.9 kmh SSE 3.5 mph5.6 kmh 30.01 in1016.3 mb - 0.00 in0.0 mm 0.14 in3.6 mm
10:20 PM 50.0°F10.0°C 44.7°F7.1°C 82% 1.2 mph SSE1.9 kmh SSE 1.2 mph1.9 kmh 30.01 in1016.3 mb - 0.00 in0.0 mm 0.14 in3.6 mm
10:30 PM 49.7°F9.8°C 44.7°F7.1°C 83% Calm Calm 1.2 mph1.9 kmh 30.01 in1016.3 mb - 0.00 in0.0 mm 0.14 in3.6 mm
10:40 PM 49.6°F9.8°C 45.0°F7.2°C 84% Calm Calm -- 30.02 in1016.6 mb - 0.00 in0.0 mm 0.14 in3.6 mm
10:50 PM 49.7°F9.8°C 45.4°F7.4°C 85% Calm Calm 1.2 mph1.9 kmh 30.02 in1016.6 mb - 0.00 in0.0 mm 0.14 in3.6 mm
11:00 PM 49.5°F9.7°C 45.5°F7.5°C 86% Calm Calm 1.2 mph1.9 kmh 30.02 in1016.6 mb - 0.00 in0.0 mm 0.16 in4.1 mm
11:10 PM 49.5°F9.7°C 45.8°F7.7°C 87% Calm Calm 1.2 mph1.9 kmh 30.02 in1016.6 mb - 0.00 in0.0 mm 0.16 in4.1 mm
11:20 PM 49.5°F9.7°C 46.1°F7.8°C 88% Calm Calm -- 30.02 in1016.6 mb - 0.00 in0.0 mm 0.16 in4.1 mm
11:30 PM 49.8°F9.9°C 46.4°F8.0°C 88% Calm Calm 1.2 mph1.9 kmh 30.02 in1016.6 mb - 0.00 in0.0 mm 0.16 in4.1 mm
11:40 PM 50.0°F10.0°C 46.9°F8.3°C 89% 1.2 mph S1.9 kmh S 1.2 mph1.9 kmh 30.02 in1016.6 mb - 0.00 in0.0 mm 0.16 in4.1 mm
11:50 PM 50.2°F10.1°C 46.8°F8.2°C 88% Calm Calm 1.2 mph1.9 kmh 30.02 in1016.6 mb - 0.00 in0.0 mm 0.16 in4.1 mm